الصفحة الرئيسية
METAR-TAF:

METAR-TAF

مطار :

Antofagasta, تشيلي

دائرة عرض: 23-26S, خط طول: 070-26W, ارتفاع: 135 متر

مراقبة الطقس الحالي

تاريخ ووقت الإصدار 54 دقيقة قبل الساعة 12:00UTC
ريح 2 عقدةمن اتجاهات متغيرة
درجة الحرارة 19°درجة مئوية
الرطوبة 68%
ضغط 1013 hPa
الرؤية 10 كم أو أكثر
غيوم مفككة على ارتفاع 3500 قدم

METAR: SCFA 201200Z VRB02KT 9999 BKN035 19/13 Q1013 NOSIG

زمن: 09:54 (12:54 UTC)

توقعات

تاريخ ووقت الإصدار 1ساعة و 29 دقيقة قبل الساعة 11:25UTC
التوقعات صالحة من20 الساعة 12 UTC إلى 21 الساعة 12 UTC
ريح 4 عقدة من الجنوب
الرؤية 10 كم أو أكثر
غيوم مفككة على ارتفاع 2800 قدم
أصبح
من 20 الساعة 13 UTC إلى 20 الساعة 15 UTC
غيوم قليلة على ارتفاع 3000 قدم
أصبح
من 20 الساعة 16 UTC إلى 20 الساعة 18 UTC
ريح 14 عقدة من الجنوب/الجنوب الغربي
أصبح
من 21 الساعة 01 UTC إلى 21 الساعة 03 UTC
ريح 4 عقدة من الجنوب
أصبح
من 21 الساعة 06 UTC إلى 21 الساعة 08 UTC
ريح 4 عقدة من الجنوب الشرقي

TAF: SCFA 201125Z 2012/2112 18004KT 9999 BKN028 TX23/2018Z TN17/ 2106Z BECMG 2013/2015 FEW030 BECMG 2016/2018 21014KT BECMG 2101/2103 18004KT BECMG 2106/2108 13004KT

أرصاد الطقس والتوقعات من أكثر من 4000 مطار (تقارير الطقس للمطار METAR والتنبؤ بالطقس بالمطارTAF).

المحطات المتاحة هي النقط الصفراء والحمراء على الخريطة.

حرك المؤشر فوق النقطة لمعرفة اسم المحطة.

ثم انقر لمعرفة أرصاد وتوقعات الطقس.

لتغيير الخارطة: اضغط على الأزرار الخضراء مع رمز الصليب الأسود للتكبير. على الزر الأخضر مع شرطة للتصغير، أو على الأسهم الخضراء للخرائط المجاورة.


METAR-TAF: